createdAt,value
2018-10-19T00:02:29.315Z,12.19
2018-10-19T00:08:24.345Z,13.19
2018-10-19T00:14:19.318Z,11.56
2018-10-19T00:20:14.338Z,12.74
2018-10-19T00:26:09.337Z,12.07
2018-10-19T00:32:04.354Z,13.6
2018-10-19T00:37:59.358Z,13.82
2018-10-19T00:43:54.377Z,15.14
2018-10-19T00:49:49.371Z,13.4
2018-10-19T00:55:44.347Z,13.2
2018-10-19T01:01:39.388Z,14.52
2018-10-19T01:07:34.377Z,13.98
2018-10-19T01:13:29.384Z,14.92
2018-10-19T01:19:24.384Z,16.44
2018-10-19T01:25:19.394Z,17.06
2018-10-19T01:31:14.439Z,16.73
2018-10-19T01:37:09.407Z,16.04
2018-10-19T01:43:04.463Z,16.61
2018-10-19T01:48:59.420Z,16.77
2018-10-19T01:54:54.475Z,17.62
2018-10-19T02:00:49.438Z,18.86
2018-10-19T02:06:44.462Z,18.34
2018-10-19T02:12:39.466Z,18.9
2018-10-19T02:18:34.452Z,17.44
2018-10-19T02:24:29.458Z,18.31
2018-10-19T02:30:24.461Z,18.09
2018-10-19T02:36:19.465Z,18.81
2018-10-19T02:42:14.493Z,18.16
2018-10-19T02:48:09.470Z,19.92
2018-10-19T02:54:04.506Z,19.9
2018-10-19T02:59:59.536Z,18.5
2018-10-19T03:05:54.546Z,19.42
2018-10-19T03:11:49.526Z,17.31
2018-10-19T03:17:44.532Z,19.63
2018-10-19T03:23:39.531Z,19.5
2018-10-19T03:29:34.569Z,17.44
2018-10-19T03:35:29.529Z,18.83
2018-10-19T03:41:24.555Z,17.82
2018-10-19T03:47:19.668Z,17.5
2018-10-19T03:53:14.612Z,19.47
2018-10-19T03:59:09.656Z,17.65
2018-10-19T04:05:04.579Z,18.59
2018-10-19T04:10:59.578Z,18.47
2018-10-19T04:16:54.633Z,18.76
2018-10-19T04:22:49.619Z,18.66
2018-10-19T04:28:44.625Z,19.17
2018-10-19T04:34:39.580Z,20.16
2018-10-19T04:40:34.630Z,20.25
2018-10-19T04:46:29.580Z,20.27
2018-10-19T04:52:24.605Z,20.86
2018-10-19T04:58:19.625Z,20.82
2018-10-19T05:04:14.609Z,20.54
2018-10-19T05:10:09.605Z,21.38
2018-10-19T05:16:04.620Z,19.54
2018-10-19T05:21:59.611Z,21.22
2018-10-19T05:27:54.627Z,21.79
2018-10-19T05:33:49.628Z,19.57
2018-10-19T05:39:44.643Z,21.16
2018-10-19T05:45:39.640Z,20.58
2018-10-19T05:51:34.642Z,21.45
2018-10-19T05:57:29.636Z,22.22
2018-10-19T06:03:24.685Z,22.05
2018-10-19T06:09:19.671Z,22.48
2018-10-19T06:15:14.693Z,22.28
2018-10-19T06:21:09.767Z,22.66
2018-10-19T06:27:04.678Z,23.63
2018-10-19T06:32:59.668Z,23.08
2018-10-19T06:38:54.705Z,21.5
2018-10-19T06:44:49.711Z,21.98
2018-10-19T06:50:44.716Z,22.2
2018-10-19T06:56:39.729Z,22.4
2018-10-19T07:02:34.710Z,21.01
2018-10-19T07:08:29.867Z,22.24
2018-10-19T07:14:24.722Z,21.77
2018-10-19T07:20:19.727Z,19.89
2018-10-19T07:26:14.775Z,22.24
2018-10-19T07:32:09.802Z,18.87
2018-10-19T07:38:04.767Z,18.87
2018-10-19T07:43:59.821Z,16.86
2018-10-19T07:49:54.908Z,16.4
2018-10-19T07:55:49.761Z,16.28
2018-10-19T08:01:44.830Z,16.75
2018-10-19T08:07:39.775Z,17.2
2018-10-19T08:13:34.781Z,14.63
2018-10-19T08:19:29.769Z,13.47
2018-10-19T08:25:24.843Z,12.18
2018-10-19T08:31:19.791Z,12.31
2018-10-19T08:37:14.838Z,12.6
2018-10-19T08:43:09.845Z,10.77
2018-10-19T08:49:04.902Z,10.77
2018-10-19T08:54:59.864Z,11.44
2018-10-19T09:00:54.877Z,9.32
2018-10-19T09:06:49.821Z,10.12
2018-10-19T09:12:44.920Z,10.53
2018-10-19T09:18:39.947Z,9.82
2018-10-19T09:24:34.863Z,9.76
2018-10-19T09:30:29.863Z,8.57
2018-10-19T09:36:24.988Z,9.18
2018-10-19T09:42:19.844Z,8.28
2018-10-19T09:48:14.850Z,8.87
2018-10-19T09:54:09.864Z,8.33
2018-10-19T10:00:04.884Z,9
2018-10-19T10:05:59.887Z,8.85
2018-10-19T10:11:54.897Z,9.82
2018-10-19T10:17:49.888Z,9.78
2018-10-19T10:23:44.934Z,9.39
2018-10-19T10:29:39.901Z,9.02
2018-10-19T10:35:34.962Z,9.16
2018-10-19T10:41:29.939Z,8.89
2018-10-19T10:47:24.908Z,8.72
2018-10-19T10:53:19.907Z,8.84
2018-10-19T10:59:14.938Z,8.69
2018-10-19T11:05:09.947Z,8.84
2018-10-19T11:11:04.949Z,8.03
2018-10-19T11:16:59.939Z,7.95
2018-10-19T11:22:54.945Z,7.72
2018-10-19T11:28:49.967Z,7.22
2018-10-19T11:34:44.982Z,7.53
2018-10-19T11:40:39.960Z,7.62
2018-10-19T11:46:35.012Z,7.09
2018-10-19T11:52:30.034Z,8.06
2018-10-19T11:58:24.996Z,7.93
2018-10-19T12:04:20.013Z,7.88
2018-10-19T12:10:15.083Z,8.44
2018-10-19T12:16:10.084Z,7.55
2018-10-19T12:22:05.032Z,6.97
2018-10-19T12:28:00.001Z,7.24
2018-10-19T12:33:55.022Z,7.97
2018-10-19T12:39:50.075Z,6.74
2018-10-19T12:45:45.065Z,5.83
2018-10-19T12:51:40.044Z,7.87
2018-10-19T12:57:35.121Z,7.14
2018-10-19T13:03:30.173Z,6.77
2018-10-19T13:09:25.058Z,6.99
2018-10-19T13:15:20.050Z,7.02
2018-10-19T13:21:15.234Z,7.15
2018-10-19T13:27:10.153Z,6.51
2018-10-19T13:33:05.181Z,6.93
2018-10-19T13:39:00.125Z,6.39
2018-10-19T13:44:55.094Z,7.27
2018-10-19T13:50:50.113Z,7.18
2018-10-19T13:56:45.114Z,6.83
2018-10-19T14:02:40.121Z,7.7
2018-10-19T14:08:35.119Z,6.91
2018-10-19T14:14:30.154Z,7.59
2018-10-19T14:20:25.143Z,7.52
2018-10-19T14:26:20.159Z,7.99
2018-10-19T14:32:15.140Z,7.2
2018-10-19T14:38:10.199Z,7.08
2018-10-19T14:44:05.179Z,8.02
2018-10-19T14:50:00.157Z,8.36
2018-10-19T14:55:55.170Z,8.31
2018-10-19T15:01:50.180Z,7.63
2018-10-19T15:07:45.226Z,8.15
2018-10-19T15:13:40.229Z,8.52
2018-10-19T15:19:35.206Z,8.23
2018-10-19T15:25:30.206Z,8.39
2018-10-19T15:31:25.236Z,9.15
2018-10-19T15:37:20.265Z,8.79
2018-10-19T15:43:15.213Z,9.42
2018-10-19T15:49:10.230Z,9
2018-10-19T15:55:05.218Z,9.73
2018-10-19T16:01:00.255Z,10.94
2018-10-19T16:06:55.245Z,10.16
2018-10-19T16:12:50.244Z,11.61
2018-10-19T16:18:45.255Z,10.91
2018-10-19T16:24:40.284Z,11.67
2018-10-19T16:30:35.311Z,12.37
2018-10-19T16:36:30.274Z,12.85
2018-10-19T17:00:10.384Z,12.79
2018-10-19T17:00:10.480Z,13.74
2018-10-19T17:00:10.502Z,13.74
2018-10-19T17:00:10.528Z,13.74
2018-10-19T17:06:05.350Z,13.69
2018-10-19T17:12:00.367Z,13.47
2018-10-19T17:17:55.369Z,14.07
2018-10-19T17:23:50.379Z,14.81
2018-10-19T17:29:45.312Z,15.15
2018-10-19T17:35:40.322Z,15.13
2018-10-19T17:41:35.334Z,16.24
2018-10-19T17:47:30.346Z,16.74
2018-10-19T17:53:25.349Z,18.09
2018-10-19T17:59:20.366Z,17.43
2018-10-19T18:05:15.490Z,78.8
2018-10-19T18:11:10.440Z,55.81
2018-10-19T18:17:05.421Z,23.17
2018-10-19T18:23:00.634Z,24.41
2018-10-19T18:28:55.394Z,22.72
2018-10-19T18:34:50.533Z,21.9
2018-10-19T18:40:45.385Z,23.52
2018-10-19T18:46:40.391Z,22.2
2018-10-19T18:52:35.392Z,22.96
2018-10-19T18:58:30.401Z,21.38
2018-10-19T19:04:25.442Z,22.57
2018-10-19T19:10:20.431Z,21.43
2018-10-19T19:16:15.449Z,21.01
2018-10-19T19:22:10.437Z,20.01
2018-10-19T19:28:05.444Z,19.12
2018-10-19T19:34:00.449Z,18.24
2018-10-19T19:39:55.442Z,20.99
2018-10-19T19:45:50.474Z,19.96
2018-10-19T19:51:45.467Z,20.29
2018-10-19T19:57:40.458Z,20.55
2018-10-19T20:03:35.454Z,20.53
2018-10-19T20:09:30.498Z,18.82
2018-10-19T20:15:25.498Z,16.28
2018-10-19T20:21:20.493Z,16.28
2018-10-19T20:27:15.499Z,15.93
2018-10-19T20:33:10.575Z,16.49
2018-10-19T20:39:05.531Z,15.48
2018-10-19T20:45:00.500Z,14.6
2018-10-19T20:50:55.517Z,17.26
2018-10-19T20:56:50.511Z,16.37
2018-10-19T21:02:45.534Z,14.82
2018-10-19T21:08:40.530Z,15.23
2018-10-19T21:14:35.551Z,14.94
2018-10-19T21:20:30.546Z,14.35
2018-10-19T21:26:25.573Z,18.57
2018-10-19T21:32:20.565Z,17.41
2018-10-19T21:38:15.590Z,18.38
2018-10-19T21:44:10.674Z,18.61
2018-10-19T21:50:05.687Z,16.89
2018-10-19T21:56:00.613Z,17.28
2018-10-19T22:01:55.628Z,16.88
2018-10-19T22:07:50.591Z,17.97
2018-10-19T22:13:45.582Z,18.52
2018-10-19T22:19:40.609Z,17.63
2018-10-19T22:25:35.603Z,17.96
2018-10-19T22:31:30.628Z,19.36
2018-10-19T22:37:25.629Z,18.49
2018-10-19T22:43:20.632Z,18.04
2018-10-19T22:49:15.738Z,19.34
2018-10-19T22:55:10.716Z,16.09
2018-10-19T23:01:05.694Z,19.11
2018-10-19T23:07:00.730Z,19
2018-10-19T23:12:55.654Z,17.04
2018-10-19T23:18:50.672Z,17.13
2018-10-19T23:24:45.678Z,17.43
2018-10-19T23:30:40.700Z,16.58
2018-10-19T23:36:35.695Z,17.57
2018-10-19T23:42:30.674Z,17.6
2018-10-19T23:48:25.707Z,16.39
2018-10-19T23:54:20.700Z,18.02
